首页
METAR-TAF:

METAR-TAF

机场 :

太原武宿国际机场

太原, 中华人民共和国

纬度: 37-47N, 经度: 112-33E, 海拔: 779米

当前天气观测

该预报发布于29分钟前的04:00 UTC
风速6节,风向西转西北,在南转西南北转西北之间变化
温度 7°C
湿度 15%
气压 1023 hPa
能见度10公里或以上
1500米以下无云,无积雨云

METAR: ZBYN 180400Z 29003MPS 210V340 CAVOK 07/M18 Q1023 NOSIG

时间: 12:29 (04:29 UTC)

预报

该预报发布于9小时和26分钟前的19:03 UTC
预报有效从18日的 00点(UTC)到 18日的 24点(UTC)
风速8节,风向南转西南
能見度: 3000
轻雾

TAF: ZBYN 171903Z 1800/1824 21004MPS 3000 BR NSC TX08/1807Z TNM05/22Z

超过4000个机场的气象观测和天气预报(METAR&TAF报告)。

可查询的气象台以黄色和红色小点在地图上表示。

将鼠标移到小点上方,可查看气象台名称。

然后点击查看天气观测和预报。

如需切换地图:点击带黑十字的绿色按钮放大地图;点击带横线的绿色按钮缩小地图;或者点击绿色箭头查看邻近地区的地图。


METAR-TAF: